sensor_id;sensor_type;location;lat;lon;timestamp;pressure;altitude;pressure_sealevel;temperature;humidity
74169;BME280;62523;53.336;83.690;2022-12-07T00:00:44;101715.56;;;-24.83;86.32
74169;BME280;62523;53.336;83.690;2022-12-07T00:05:45;101732.34;;;-25.02;86.83
74169;BME280;62523;53.336;83.690;2022-12-07T00:10:46;101735.03;;;-25.01;86.32
74169;BME280;62523;53.336;83.690;2022-12-07T00:15:47;101730.09;;;-24.86;86.44
74169;BME280;62523;53.336;83.690;2022-12-07T00:20:49;101721.28;;;-25.11;86.49
74169;BME280;62523;53.336;83.690;2022-12-07T00:25:50;101736.59;;;-24.74;87.05
74169;BME280;62523;53.336;83.690;2022-12-07T00:30:51;101728.28;;;-25.29;86.48
74169;BME280;62523;53.336;83.690;2022-12-07T00:35:56;101693.41;;;-25.83;86.50
74169;BME280;62523;53.336;83.690;2022-12-07T00:41:04;101744.03;;;-25.35;86.76
74169;BME280;62523;53.336;83.690;2022-12-07T00:46:05;101729.81;;;-25.36;85.96
74169;BME280;62523;53.336;83.690;2022-12-07T00:51:07;101751.47;;;-25.82;85.16
74169;BME280;62523;53.336;83.690;2022-12-07T00:56:23;101746.94;;;-25.25;85.61
74169;BME280;62523;53.336;83.690;2022-12-07T01:01:27;101751.75;;;-25.47;86.13
74169;BME280;62523;53.336;83.690;2022-12-07T01:06:29;101738.13;;;-25.43;86.86
74169;BME280;62523;53.336;83.690;2022-12-07T01:11:31;101742.31;;;-25.29;88.26
74169;BME280;62523;53.336;83.690;2022-12-07T01:16:32;101749.00;;;-25.08;88.82
74169;BME280;62523;53.336;83.690;2022-12-07T01:21:35;101746.53;;;-24.74;89.14
74169;BME280;62523;53.336;83.690;2022-12-07T01:26:38;101752.00;;;-24.42;89.03
74169;BME280;62523;53.336;83.690;2022-12-07T01:31:39;101744.88;;;-24.46;88.63
74169;BME280;62523;53.336;83.690;2022-12-07T01:36:40;101739.53;;;-24.42;87.23
74169;BME280;62523;53.336;83.690;2022-12-07T01:41:41;101754.16;;;-24.31;87.45
74169;BME280;62523;53.336;83.690;2022-12-07T01:46:49;101693.31;;;-24.40;87.43
74169;BME280;62523;53.336;83.690;2022-12-07T01:51:53;101750.38;;;-24.42;87.34
74169;BME280;62523;53.336;83.690;2022-12-07T01:56:56;101748.44;;;-24.44;87.14
74169;BME280;62523;53.336;83.690;2022-12-07T02:01:59;101736.13;;;-24.64;86.86
74169;BME280;62523;53.336;83.690;2022-12-07T02:07:03;101745.63;;;-25.09;86.13
74169;BME280;62523;53.336;83.690;2022-12-07T02:12:05;101646.66;;;-25.46;86.25
74169;BME280;62523;53.336;83.690;2022-12-07T02:17:32;101754.13;;;-24.80;86.50
74169;BME280;62523;53.336;83.690;2022-12-07T02:22:50;101746.44;;;-24.88;86.24
74169;BME280;62523;53.336;83.690;2022-12-07T02:28:17;101746.06;;;-24.98;85.99
74169;BME280;62523;53.336;83.690;2022-12-07T02:33:37;101753.53;;;-24.98;85.58
74169;BME280;62523;53.336;83.690;2022-12-07T02:38:58;101743.47;;;-25.20;85.88
74169;BME280;62523;53.336;83.690;2022-12-07T02:44:05;101762.41;;;-25.01;86.23
74169;BME280;62523;53.336;83.690;2022-12-07T02:49:08;101765.56;;;-25.02;85.48
74169;BME280;62523;53.336;83.690;2022-12-07T02:54:15;101771.50;;;-24.94;85.47
74169;BME280;62523;53.336;83.690;2022-12-07T05:03:49;101770.50;;;-22.98;78.75
74169;BME280;62523;53.336;83.690;2022-12-07T05:08:51;101776.38;;;-22.98;79.54
74169;BME280;62523;53.336;83.690;2022-12-07T05:13:52;101747.78;;;-22.64;79.94
74169;BME280;62523;53.336;83.690;2022-12-07T05:18:54;101741.06;;;-22.94;80.14
74169;BME280;62523;53.336;83.690;2022-12-07T05:23:55;101742.75;;;-22.57;80.88
74169;BME280;62523;53.336;83.690;2022-12-07T05:28:57;101744.75;;;-22.24;79.85
74169;BME280;62523;53.336;83.690;2022-12-07T05:33:58;101742.34;;;-22.15;80.26
74169;BME280;62523;53.336;83.690;2022-12-07T05:38:59;101746.44;;;-22.39;80.86
74169;BME280;62523;53.336;83.690;2022-12-07T05:44:01;101733.28;;;-21.84;80.38
74169;BME280;62523;53.336;83.690;2022-12-07T05:49:02;101737.91;;;-21.80;80.78
74169;BME280;62523;53.336;83.690;2022-12-07T05:54:04;101733.56;;;-21.74;81.70
74169;BME280;62523;53.336;83.690;2022-12-07T05:59:05;101735.97;;;-21.60;81.91
74169;BME280;62523;53.336;83.690;2022-12-07T06:04:27;101724.31;;;-21.36;82.14
74169;BME280;62523;53.336;83.690;2022-12-07T06:09:28;101727.69;;;-21.13;82.51
74169;BME280;62523;53.336;83.690;2022-12-07T06:14:30;101715.09;;;-21.06;83.41
74169;BME280;62523;53.336;83.690;2022-12-07T06:19:31;101721.53;;;-21.08;83.23
74169;BME280;62523;53.336;83.690;2022-12-07T06:24:33;101716.66;;;-20.67;82.80
74169;BME280;62523;53.336;83.690;2022-12-07T06:29:34;101702.44;;;-20.91;82.69
74169;BME280;62523;53.336;83.690;2022-12-07T06:34:35;101705.69;;;-20.92;82.81
74169;BME280;62523;53.336;83.690;2022-12-07T06:39:36;101709.97;;;-20.59;83.38
74169;BME280;62523;53.336;83.690;2022-12-07T06:44:37;101680.88;;;-20.66;82.64
74169;BME280;62523;53.336;83.690;2022-12-07T06:49:39;101700.50;;;-20.62;82.59
74169;BME280;62523;53.336;83.690;2022-12-07T06:54:40;101695.88;;;-20.10;82.01
74169;BME280;62523;53.336;83.690;2022-12-07T06:59:41;101681.97;;;-20.15;81.11
74169;BME280;62523;53.336;83.690;2022-12-07T07:04:42;101672.94;;;-19.97;80.74
74169;BME280;62523;53.336;83.690;2022-12-07T07:09:43;101685.78;;;-19.94;80.51
74169;BME280;62523;53.336;83.690;2022-12-07T07:14:44;101673.56;;;-19.91;80.51
74169;BME280;62523;53.336;83.690;2022-12-07T07:19:46;101670.44;;;-20.37;80.74
74169;BME280;62523;53.336;83.690;2022-12-07T07:24:47;101677.72;;;-20.07;80.79
74169;BME280;62523;53.336;83.690;2022-12-07T07:29:48;101668.91;;;-20.04;79.83
74169;BME280;62523;53.336;83.690;2022-12-07T07:34:49;101619.25;;;-19.90;79.53
74169;BME280;62523;53.336;83.690;2022-12-07T07:39:50;101657.81;;;-19.81;78.78
74169;BME280;62523;53.336;83.690;2022-12-07T07:44:51;101648.59;;;-19.89;78.26
74169;BME280;62523;53.336;83.690;2022-12-07T07:49:52;101653.63;;;-19.89;79.24
74169;BME280;62523;53.336;83.690;2022-12-07T07:54:53;101657.06;;;-19.89;78.58
74169;BME280;62523;53.336;83.690;2022-12-07T07:59:55;101667.56;;;-19.84;79.04
74169;BME280;62523;53.336;83.690;2022-12-07T08:04:56;101663.25;;;-19.85;80.13
74169;BME280;62523;53.336;83.690;2022-12-07T08:09:57;101673.81;;;-19.72;79.70
74169;BME280;62523;53.336;83.690;2022-12-07T08:14:58;101651.88;;;-19.90;79.54
74169;BME280;62523;53.336;83.690;2022-12-07T08:19:59;101656.00;;;-19.91;79.86
74169;BME280;62523;53.336;83.690;2022-12-07T08:25:01;101672.09;;;-19.89;79.39
74169;BME280;62523;53.336;83.690;2022-12-07T08:30:02;101662.13;;;-19.80;79.24
74169;BME280;62523;53.336;83.690;2022-12-07T08:35:04;101658.75;;;-19.96;79.27
74169;BME280;62523;53.336;83.690;2022-12-07T08:40:07;101657.34;;;-19.86;79.71
74169;BME280;62523;53.336;83.690;2022-12-07T08:45:12;101650.19;;;-19.98;79.83
74169;BME280;62523;53.336;83.690;2022-12-07T08:50:13;101666.66;;;-19.85;79.78
74169;BME280;62523;53.336;83.690;2022-12-07T08:55:14;101649.47;;;-19.97;79.89
74169;BME280;62523;53.336;83.690;2022-12-07T09:00:16;101669.22;;;-20.00;80.21
74169;BME280;62523;53.336;83.690;2022-12-07T09:05:20;101658.09;;;-20.11;80.38
74169;BME280;62523;53.336;83.690;2022-12-07T09:10:22;101648.81;;;-20.28;80.52
74169;BME280;62523;53.336;83.690;2022-12-07T09:15:24;101669.31;;;-20.08;80.14
74169;BME280;62523;53.336;83.690;2022-12-07T09:20:25;101679.78;;;-20.12;80.47
74169;BME280;62523;53.336;83.690;2022-12-07T09:25:26;101673.59;;;-20.31;80.32
74169;BME280;62523;53.336;83.690;2022-12-07T09:30:27;101680.06;;;-20.33;81.53
74169;BME280;62523;53.336;83.690;2022-12-07T09:35:29;101668.09;;;-20.52;81.78
74169;BME280;62523;53.336;83.690;2022-12-07T09:40:30;101678.56;;;-20.56;81.65
74169;BME280;62523;53.336;83.690;2022-12-07T09:45:34;101691.38;;;-20.61;82.69
74169;BME280;62523;53.336;83.690;2022-12-07T09:50:36;101664.84;;;-20.59;83.17
74169;BME280;62523;53.336;83.690;2022-12-07T09:55:38;101687.75;;;-20.48;82.90
74169;BME280;62523;53.336;83.690;2022-12-07T10:00:41;101680.59;;;-20.60;83.33
74169;BME280;62523;53.336;83.690;2022-12-07T10:05:45;101679.06;;;-20.67;83.93
74169;BME280;62523;53.336;83.690;2022-12-07T10:10:51;101687.25;;;-20.77;83.68
74169;BME280;62523;53.336;83.690;2022-12-07T10:15:55;101687.53;;;-21.06;84.68
74169;BME280;62523;53.336;83.690;2022-12-07T10:31:26;101696.41;;;-21.16;86.98
74169;BME280;62523;53.336;83.690;2022-12-07T10:36:38;101687.16;;;-21.40;87.15
74169;BME280;62523;53.336;83.690;2022-12-07T10:42:00;101684.16;;;-21.61;86.95
74169;BME280;62523;53.336;83.690;2022-12-07T10:52:26;101708.16;;;-21.70;87.94
74169;BME280;62523;53.336;83.690;2022-12-07T11:29:44;101709.53;;;-21.88;89.91
74169;BME280;62523;53.336;83.690;2022-12-07T11:35:08;101714.03;;;-21.93;89.89
74169;BME280;62523;53.336;83.690;2022-12-07T11:40:30;101707.78;;;-21.96;90.14
74169;BME280;62523;53.336;83.690;2022-12-07T11:45:37;101716.66;;;-21.84;90.22
74169;BME280;62523;53.336;83.690;2022-12-07T11:50:54;101726.84;;;-21.82;90.53
74169;BME280;62523;53.336;83.690;2022-12-07T11:56:07;101731.78;;;-21.75;89.41
74169;BME280;62523;53.336;83.690;2022-12-07T12:06:34;101708.78;;;-22.10;90.01
74169;BME280;62523;53.336;83.690;2022-12-07T12:22:40;101714.84;;;-21.78;90.68
74169;BME280;62523;53.336;83.690;2022-12-07T12:27:46;101706.84;;;-21.90;90.19
74169;BME280;62523;53.336;83.690;2022-12-07T12:32:48;101723.09;;;-21.86;90.11
74169;BME280;62523;53.336;83.690;2022-12-07T12:37:52;101710.84;;;-21.99;89.73
74169;BME280;62523;53.336;83.690;2022-12-07T12:42:55;101723.81;;;-22.17;89.61
74169;BME280;62523;53.336;83.690;2022-12-07T12:48:04;101714.44;;;-22.27;90.10
74169;BME280;62523;53.336;83.690;2022-12-07T12:53:26;101716.44;;;-22.32;90.07
74169;BME280;62523;53.336;83.690;2022-12-07T12:58:29;101723.81;;;-22.17;89.66
74169;BME280;62523;53.336;83.690;2022-12-07T13:03:32;101717.34;;;-22.15;89.88
74169;BME280;62523;53.336;83.690;2022-12-07T13:08:40;101726.16;;;-22.19;89.77
74169;BME280;62523;53.336;83.690;2022-12-07T13:13:42;101731.66;;;-22.14;89.13
74169;BME280;62523;53.336;83.690;2022-12-07T13:18:43;101719.63;;;-22.25;89.51
74169;BME280;62523;53.336;83.690;2022-12-07T13:34:33;101726.09;;;-22.42;89.65
74169;BME280;62523;53.336;83.690;2022-12-07T13:39:34;101721.47;;;-22.46;89.98
74169;BME280;62523;53.336;83.690;2022-12-07T13:44:40;101703.25;;;-22.38;89.96
74169;BME280;62523;53.336;83.690;2022-12-07T13:49:54;101724.22;;;-22.66;90.21
74169;BME280;62523;53.336;83.690;2022-12-07T13:55:08;101731.97;;;-22.41;90.34
74169;BME280;62523;53.336;83.690;2022-12-07T14:00:23;101729.25;;;-22.28;91.02
74169;BME280;62523;53.336;83.690;2022-12-07T14:10:34;101728.63;;;-22.49;90.89
74169;BME280;62523;53.336;83.690;2022-12-07T14:15:35;101731.78;;;-22.87;89.94
74169;BME280;62523;53.336;83.690;2022-12-07T14:20:39;101741.81;;;-23.02;89.36
74169;BME280;62523;53.336;83.690;2022-12-07T14:25:51;101740.06;;;-23.31;88.93
74169;BME280;62523;53.336;83.690;2022-12-07T14:30:53;101741.47;;;-23.33;87.98
74169;BME280;62523;53.336;83.690;2022-12-07T14:35:55;101728.66;;;-23.29;88.25
74169;BME280;62523;53.336;83.690;2022-12-07T14:40:58;101704.59;;;-23.72;87.76
74169;BME280;62523;53.336;83.690;2022-12-07T14:46:19;101733.28;;;-23.68;87.47
74169;BME280;62523;53.336;83.690;2022-12-07T14:51:20;101721.69;;;-23.25;87.25
74169;BME280;62523;53.336;83.690;2022-12-07T14:56:21;101722.63;;;-23.46;87.52
74169;BME280;62523;53.336;83.690;2022-12-07T15:01:23;101720.31;;;-23.59;87.75
74169;BME280;62523;53.336;83.690;2022-12-07T15:06:24;101728.31;;;-23.61;87.22
74169;BME280;62523;53.336;83.690;2022-12-07T15:11:25;101715.44;;;-24.00;87.02
74169;BME280;62523;53.336;83.690;2022-12-07T15:16:26;101727.22;;;-23.99;87.46
74169;BME280;62523;53.336;83.690;2022-12-07T15:21:28;101727.03;;;-24.08;86.92
74169;BME280;62523;53.336;83.690;2022-12-07T15:26:29;101689.94;;;-24.26;87.24
74169;BME280;62523;53.336;83.690;2022-12-07T15:31:30;101716.69;;;-24.11;86.85
74169;BME280;62523;53.336;83.690;2022-12-07T15:36:32;101730.25;;;-23.87;86.56
74169;BME280;62523;53.336;83.690;2022-12-07T15:41:35;101724.88;;;-24.05;86.68
74169;BME280;62523;53.336;83.690;2022-12-07T15:46:37;101723.59;;;-24.15;86.65
74169;BME280;62523;53.336;83.690;2022-12-07T15:51:39;101714.91;;;-24.12;86.88
74169;BME280;62523;53.336;83.690;2022-12-07T15:56:40;101725.91;;;-24.24;86.64
74169;BME280;62523;53.336;83.690;2022-12-07T16:01:42;101723.88;;;-24.41;86.63
74169;BME280;62523;53.336;83.690;2022-12-07T16:06:43;101708.75;;;-24.57;86.70
74169;BME280;62523;53.336;83.690;2022-12-07T16:11:45;101721.53;;;-24.61;87.60
74169;BME280;62523;53.336;83.690;2022-12-07T16:16:47;101719.13;;;-24.81;87.09
74169;BME280;62523;53.336;83.690;2022-12-07T16:21:48;101718.03;;;-24.49;87.37
74169;BME280;62523;53.336;83.690;2022-12-07T16:26:49;101727.50;;;-24.73;86.80
74169;BME280;62523;53.336;83.690;2022-12-07T16:31:51;101711.25;;;-24.57;86.91
74169;BME280;62523;53.336;83.690;2022-12-07T16:36:52;101696.84;;;-24.52;86.43
74169;BME280;62523;53.336;83.690;2022-12-07T16:41:53;101704.13;;;-24.88;86.10
74169;BME280;62523;53.336;83.690;2022-12-07T16:46:54;101706.47;;;-24.90;85.94
74169;BME280;62523;53.336;83.690;2022-12-07T16:51:55;101706.69;;;-24.81;85.89
74169;BME280;62523;53.336;83.690;2022-12-07T16:56:57;101709.94;;;-25.02;85.25
74169;BME280;62523;53.336;83.690;2022-12-07T17:01:58;101680.66;;;-25.32;85.36
74169;BME280;62523;53.336;83.690;2022-12-07T17:06:59;101692.09;;;-25.19;85.56
74169;BME280;62523;53.336;83.690;2022-12-07T17:12:01;101691.41;;;-25.11;85.70
74169;BME280;62523;53.336;83.690;2022-12-07T17:17:03;101687.56;;;-24.61;86.52
74169;BME280;62523;53.336;83.690;2022-12-07T17:22:05;101676.91;;;-24.45;86.60
74169;BME280;62523;53.336;83.690;2022-12-07T17:27:06;101688.00;;;-24.77;86.37
74169;BME280;62523;53.336;83.690;2022-12-07T17:32:07;101696.75;;;-24.74;87.72
74169;BME280;62523;53.336;83.690;2022-12-07T17:37:08;101685.06;;;-25.02;88.64
74169;BME280;62523;53.336;83.690;2022-12-07T17:42:09;101694.59;;;-24.78;88.52
74169;BME280;62523;53.336;83.690;2022-12-07T17:47:30;101692.53;;;-24.61;88.84
74169;BME280;62523;53.336;83.690;2022-12-07T17:52:31;101686.91;;;-24.38;89.72
74169;BME280;62523;53.336;83.690;2022-12-07T17:57:50;101682.66;;;-24.88;89.60
74169;BME280;62523;53.336;83.690;2022-12-07T18:02:52;101690.09;;;-24.39;89.93
74169;BME280;62523;53.336;83.690;2022-12-07T18:07:53;101678.44;;;-24.74;90.33
74169;BME280;62523;53.336;83.690;2022-12-07T18:12:55;101696.13;;;-24.93;90.14
74169;BME280;62523;53.336;83.690;2022-12-07T18:18:16;101677.06;;;-24.58;91.08
74169;BME280;62523;53.336;83.690;2022-12-07T18:23:17;101663.50;;;-24.74;91.06
74169;BME280;62523;53.336;83.690;2022-12-07T18:28:20;101683.53;;;-24.87;91.26
74169;BME280;62523;53.336;83.690;2022-12-07T18:33:21;101677.25;;;-25.05;91.24
74169;BME280;62523;53.336;83.690;2022-12-07T18:38:23;101665.50;;;-25.06;91.80
74169;BME280;62523;53.336;83.690;2022-12-07T18:43:25;101697.63;;;-24.73;91.63
74169;BME280;62523;53.336;83.690;2022-12-07T18:48:26;101683.31;;;-24.96;91.87
74169;BME280;62523;53.336;83.690;2022-12-07T18:53:28;101686.38;;;-24.91;91.84
74169;BME280;62523;53.336;83.690;2022-12-07T18:58:30;101701.31;;;-24.84;91.54
74169;BME280;62523;53.336;83.690;2022-12-07T19:03:31;101704.41;;;-25.07;91.78
74169;BME280;62523;53.336;83.690;2022-12-07T19:08:32;101694.13;;;-24.68;92.04
74169;BME280;62523;53.336;83.690;2022-12-07T19:13:34;101695.47;;;-24.85;92.38
74169;BME280;62523;53.336;83.690;2022-12-07T19:18:35;101703.34;;;-25.09;92.09
74169;BME280;62523;53.336;83.690;2022-12-07T19:23:36;101672.41;;;-25.11;91.42
74169;BME280;62523;53.336;83.690;2022-12-07T19:28:38;101710.47;;;-24.70;91.44
74169;BME280;62523;53.336;83.690;2022-12-07T19:33:39;101695.03;;;-25.02;90.79
74169;BME280;62523;53.336;83.690;2022-12-07T19:38:41;101658.16;;;-25.19;90.97
74169;BME280;62523;53.336;83.690;2022-12-07T19:43:42;101710.03;;;-25.15;90.32
74169;BME280;62523;53.336;83.690;2022-12-07T19:48:43;101724.97;;;-25.15;89.70
74169;BME280;62523;53.336;83.690;2022-12-07T19:53:44;101697.78;;;-25.48;89.76
74169;BME280;62523;53.336;83.690;2022-12-07T19:58:46;101739.22;;;-25.41;89.29
74169;BME280;62523;53.336;83.690;2022-12-07T20:03:47;101735.91;;;-25.54;88.85
74169;BME280;62523;53.336;83.690;2022-12-07T20:08:49;101723.84;;;-25.51;88.18
74169;BME280;62523;53.336;83.690;2022-12-07T20:13:50;101725.66;;;-25.23;87.69
74169;BME280;62523;53.336;83.690;2022-12-07T20:18:52;101742.34;;;-25.49;87.79
74169;BME280;62523;53.336;83.690;2022-12-07T20:23:54;101731.56;;;-25.43;87.58
74169;BME280;62523;53.336;83.690;2022-12-07T20:28:55;101716.47;;;-25.64;86.67
74169;BME280;62523;53.336;83.690;2022-12-07T20:33:57;101726.25;;;-25.78;86.34
74169;BME280;62523;53.336;83.690;2022-12-07T20:39:00;101721.13;;;-25.80;86.24
74169;BME280;62523;53.336;83.690;2022-12-07T20:44:02;101719.41;;;-25.94;86.02
74169;BME280;62523;53.336;83.690;2022-12-07T20:49:03;101720.56;;;-26.05;85.34
74169;BME280;62523;53.336;83.690;2022-12-07T20:54:05;101716.72;;;-26.15;85.43
74169;BME280;62523;53.336;83.690;2022-12-07T20:59:07;101703.41;;;-26.16;86.55
74169;BME280;62523;53.336;83.690;2022-12-07T21:04:13;101716.19;;;-26.33;85.92
74169;BME280;62523;53.336;83.690;2022-12-07T21:09:15;101724.34;;;-26.01;86.07
74169;BME280;62523;53.336;83.690;2022-12-07T21:14:16;101724.38;;;-26.14;86.21
74169;BME280;62523;53.336;83.690;2022-12-07T21:19:17;101640.03;;;-26.39;86.00
74169;BME280;62523;53.336;83.690;2022-12-07T21:24:18;101698.69;;;-26.27;85.79
74169;BME280;62523;53.336;83.690;2022-12-07T21:29:20;101719.88;;;-26.03;86.84
74169;BME280;62523;53.336;83.690;2022-12-07T21:34:21;101710.94;;;-26.09;86.98
74169;BME280;62523;53.336;83.690;2022-12-07T21:39:22;101691.00;;;-26.36;86.97
74169;BME280;62523;53.336;83.690;2022-12-07T21:44:23;101704.19;;;-26.10;86.77
74169;BME280;62523;53.336;83.690;2022-12-07T21:49:24;101715.78;;;-26.23;86.17
74169;BME280;62523;53.336;83.690;2022-12-07T21:54:25;101702.94;;;-26.46;85.30
74169;BME280;62523;53.336;83.690;2022-12-07T21:59:26;101661.16;;;-26.23;86.07
74169;BME280;62523;53.336;83.690;2022-12-07T22:04:27;101668.03;;;-26.28;85.97
74169;BME280;62523;53.336;83.690;2022-12-07T22:09:53;101710.69;;;-25.77;86.15
74169;BME280;62523;53.336;83.690;2022-12-07T22:14:54;101694.66;;;-25.59;86.64
74169;BME280;62523;53.336;83.690;2022-12-07T22:20:09;101685.91;;;-25.43;86.29
74169;BME280;62523;53.336;83.690;2022-12-07T22:25:12;101658.97;;;-26.07;86.48
74169;BME280;62523;53.336;83.690;2022-12-07T22:30:13;101687.31;;;-26.12;86.41
74169;BME280;62523;53.336;83.690;2022-12-07T22:35:15;101672.47;;;-26.25;86.40
74169;BME280;62523;53.336;83.690;2022-12-07T22:40:16;101691.75;;;-26.30;86.72
74169;BME280;62523;53.336;83.690;2022-12-07T22:45:18;101702.31;;;-26.38;85.93
74169;BME280;62523;53.336;83.690;2022-12-07T22:50:19;101683.34;;;-26.37;85.99
74169;BME280;62523;53.336;83.690;2022-12-07T22:55:20;101701.13;;;-26.14;86.67
74169;BME280;62523;53.336;83.690;2022-12-07T23:00:21;101695.88;;;-26.10;87.38
74169;BME280;62523;53.336;83.690;2022-12-07T23:05:22;101692.97;;;-26.13;86.76
74169;BME280;62523;53.336;83.690;2022-12-07T23:10:24;101691.97;;;-26.41;86.46
74169;BME280;62523;53.336;83.690;2022-12-07T23:15:25;101704.22;;;-26.42;86.79
74169;BME280;62523;53.336;83.690;2022-12-07T23:20:26;101709.69;;;-25.85;87.66
74169;BME280;62523;53.336;83.690;2022-12-07T23:25:27;101703.66;;;-26.27;87.35
74169;BME280;62523;53.336;83.690;2022-12-07T23:30:28;101712.88;;;-26.26;87.54
74169;BME280;62523;53.336;83.690;2022-12-07T23:35:29;101713.59;;;-26.27;87.06
74169;BME280;62523;53.336;83.690;2022-12-07T23:40:30;101707.91;;;-26.26;86.80
74169;BME280;62523;53.336;83.690;2022-12-07T23:45:32;101716.16;;;-26.53;85.98
74169;BME280;62523;53.336;83.690;2022-12-07T23:50:33;101696.63;;;-26.57;85.94
74169;BME280;62523;53.336;83.690;2022-12-07T23:55:34;101710.88;;;-26.69;85.77
